Time;durP1;ratioP1;P1;durP2;ratioP2;P2;SDS_P1;SDS_P2;PMS_P1;PMS_P2;Temp;Humidity;BMP_temperature;BMP_pressure;BME280_temperature;BME280_humidity;BME280_pressure;Samples;Min_cycle;Max_cycle;Signal;HPM_P1;HPM_P2
2020/12/05 00:02:00;;;;;;;;;;;;;;;;;;;;;
2020/12/05 00:07:40;;;;;;;205.50;196.43;;;2.50;99.90;;;;;;4084521;27;20312;-87
2020/12/05 00:10:34;;;;;;;;;;;;;;;;;;;;;
2020/12/05 00:13:13;;;;;;;209.83;200.40;;;2.30;99.90;;;;;;4173652;26;20341;-86
2020/12/05 00:15:41;;;;;;;199.80;191.30;;;2.40;99.90;;;;;;4170738;34;20386;-87
2020/12/05 00:18:42;;;;;;;197.60;188.73;;;2.30;99.90;;;;;;4171515;34;20633;-87
2020/12/05 00:21:24;;;;;;;196.83;188.13;;;2.50;99.90;;;;;;4125269;34;20376;-87
2020/12/05 00:23:59;;;;;;;198.67;189.77;;;2.30;99.90;;;;;;4192820;26;20313;-87
2020/12/05 00:27:01;;;;;;;;;;;;;;;;;;;;;
2020/12/05 00:30:27;;;;;;;;;;;;;;;;;;;;;
2020/12/05 00:33:19;;;;;;;194.77;185.70;;;2.00;99.90;;;;;;4164504;34;20294;-86
2020/12/05 00:36:08;;;;;;;;;;;;;;;;;;;;;
2020/12/05 00:39:10;;;;;;;193.23;184.70;;;2.30;99.90;;;;;;4196027;26;20301;-87
2020/12/05 00:50:52;;;;;;;;;;;;;;;;;;;;;
2020/12/05 00:53:26;;;;;;;215.60;205.57;;;2.50;99.90;;;;;;4171413;34;20313;-86
2020/12/05 00:55:59;;;;;;;212.33;202.73;;;2.50;99.90;;;;;;4171539;34;20324;-87
2020/12/05 01:01:40;;;;;;;201.70;192.20;;;2.50;99.90;;;;;;4167812;34;20318;-86
2020/12/05 01:04:53;;;;;;;;;;;;;;;;;;;;;
2020/12/05 01:07:40;;;;;;;206.60;197.30;;;2.40;99.90;;;;;;4083531;35;20320;-87
2020/12/05 01:10:21;;;;;;;191.97;183.27;;;2.30;99.90;;;;;;4101188;27;20322;-87
2020/12/05 01:13:01;;;;;;;189.93;181.30;;;2.40;99.90;;;;;;4155103;27;20382;-87
2020/12/05 01:15:45;;;;;;;187.40;178.77;;;2.20;99.90;;;;;;4198345;26;20291;-86
2020/12/05 01:18:32;;;;;;;179.80;171.83;;;2.00;99.90;;;;;;4157662;34;20293;-87
2020/12/05 01:21:23;;;;;;;;;;;;;;;;;;;;;
2020/12/05 01:23:54;;;;;;;180.80;172.27;;;1.90;99.90;;;;;;4153485;34;20750;-86
2020/12/05 01:26:51;;;;;;;192.83;184.20;;;2.00;99.90;;;;;;4157573;34;20286;-86
2020/12/05 01:29:53;;;;;;;205.70;196.40;;;1.90;99.90;;;;;;4159158;26;20349;-87
2020/12/05 01:33:05;;;;;;;;;;;;;;;;;;;;;
2020/12/05 01:35:47;;;;;;;192.97;183.57;;;1.80;99.90;;;;;;4189466;26;20310;-86
2020/12/05 01:38:24;;;;;;;201.00;191.47;;;1.80;99.90;;;;;;4178659;26;20384;-86
2020/12/05 01:41:06;;;;;;;203.17;193.50;;;2.00;99.90;;;;;;4191710;26;20352;-87
2020/12/05 01:43:55;;;;;;;;;;;;;;;;;;;;;
2020/12/05 01:46:43;;;;;;;;;;;;;;;;;;;;;
2020/12/05 01:49:18;;;;;;;192.90;183.33;;;1.90;99.90;;;;;;4157827;34;20719;-87
2020/12/05 01:52:04;;;;;;;196.03;186.93;;;2.00;99.90;;;;;;4182236;26;20974;-86
2020/12/05 01:54:36;;;;;;;202.10;192.33;;;1.90;99.90;;;;;;4167132;26;20317;-86
2020/12/05 01:57:30;;;;;;;213.30;202.70;;;1.90;99.90;;;;;;4157666;34;20286;-87
2020/12/05 02:00:16;;;;;;;196.27;185.83;;;1.80;99.90;;;;;;4169956;26;20419;-87
2020/12/05 02:03:12;;;;;;;196.60;186.50;;;1.70;99.90;;;;;;4160437;26;20283;-87
2020/12/05 02:06:09;;;;;;;189.70;180.13;;;1.60;99.90;;;;;;4173978;27;20294;-87
2020/12/05 02:09:14;;;;;;;194.00;183.20;;;1.70;99.90;;;;;;4188656;26;20291;-86
2020/12/05 02:12:02;;;;;;;188.83;179.23;;;1.80;99.90;;;;;;4197412;26;20355;-86
2020/12/05 02:14:41;;;;;;;201.30;191.30;;;1.70;99.90;;;;;;4193178;26;20580;-87
2020/12/05 02:17:19;;;;;;;199.23;189.73;;;1.50;99.90;;;;;;4173112;26;20302;-87
2020/12/05 02:20:07;;;;;;;206.47;196.50;;;1.70;99.90;;;;;;4206560;26;20632;-87
2020/12/05 02:22:48;;;;;;;204.50;193.80;;;1.80;99.90;;;;;;4198129;26;20309;-87
2020/12/05 02:28:34;;;;;;;200.27;189.07;;;1.70;99.90;;;;;;4208406;26;20742;-87
2020/12/05 02:31:06;;;;;;;216.27;204.10;;;1.80;99.90;;;;;;4170256;34;20804;-86
2020/12/05 02:33:51;;;;;;;203.03;191.93;;;1.80;99.90;;;;;;4170992;34;20326;-86
2020/12/05 02:36:48;;;;;;;217.97;206.27;;;1.70;99.90;;;;;;4170961;34;20321;-86
2020/12/05 02:39:26;;;;;;;219.27;207.00;;;1.90;99.90;;;;;;4087559;35;20864;-86
2020/12/05 02:41:59;;;;;;;213.30;200.70;;;2.10;99.90;;;;;;4148556;34;20286;-87
2020/12/05 02:44:36;;;;;;;221.53;209.60;;;2.10;99.90;;;;;;4215930;26;20714;-86
2020/12/05 02:47:34;;;;;;;215.77;203.57;;;2.10;99.90;;;;;;4170185;34;20305;-86
2020/12/05 02:50:08;;;;;;;218.30;205.83;;;2.00;99.90;;;;;;4170974;34;20297;-87
2020/12/05 02:52:36;;;;;;;222.73;210.03;;;1.90;99.90;;;;;;4170781;34;20943;-86
2020/12/05 02:55:10;;;;;;;205.73;193.00;;;1.90;99.90;;;;;;4167891;34;20334;-87
2020/12/05 03:00:30;;;;;;;223.10;210.37;;;1.90;99.90;;;;;;4211745;26;20317;-86
2020/12/05 03:03:12;;;;;;;;;;;;;;;;;;;;;
2020/12/05 03:05:51;;;;;;;202.77;191.37;;;2.00;99.90;;;;;;4163860;34;20306;-86
2020/12/05 03:08:24;;;;;;;207.93;195.93;;;1.90;99.90;;;;;;4170586;34;20829;-87
2020/12/05 03:11:17;;;;;;;204.80;193.10;;;1.90;99.90;;;;;;4175811;26;20301;-87
2020/12/05 03:13:49;;;;;;;207.70;195.23;;;2.10;99.90;;;;;;4170776;34;20410;-87
2020/12/05 03:16:20;;;;;;;202.70;190.07;;;2.30;99.90;;;;;;4170109;34;20354;-86
2020/12/05 03:18:51;;;;;;;197.33;185.77;;;1.90;99.90;;;;;;4170891;34;20290;-87
2020/12/05 03:21:19;;;;;;;199.70;187.90;;;1.80;99.90;;;;;;4170600;34;20333;-86
2020/12/05 03:23:49;;;;;;;204.37;192.67;;;1.70;99.90;;;;;;4208987;26;20313;-86
2020/12/05 03:26:18;;;;;;;206.07;194.07;;;1.70;99.90;;;;;;4216961;26;20328;-86
2020/12/05 03:29:01;;;;;;;206.67;195.17;;;1.70;99.90;;;;;;4167682;34;20801;-86
2020/12/05 03:31:41;;;;;;;211.23;198.47;;;1.70;99.90;;;;;;4242406;26;20286;-85
2020/12/05 03:34:21;;;;;;;;;;;;;;;;;;;;;
2020/12/05 03:37:32;;;;;;;;;;;;;;;;;;;;;
2020/12/05 03:40:26;;;;;;;211.77;199.57;;;2.00;99.90;;;;;;4204395;26;20633;-86
2020/12/05 03:42:58;;;;;;;221.90;209.03;;;2.20;99.90;;;;;;4085313;34;20328;-86
2020/12/05 03:45:43;;;;;;;216.90;204.17;;;2.20;99.90;;;;;;4125694;27;20383;-85
2020/12/05 03:48:12;;;;;;;214.20;201.20;;;2.00;99.90;;;;;;4086111;34;20332;-85
2020/12/05 03:50:41;;;;;;;218.17;204.83;;;1.90;99.90;;;;;;4167650;34;20301;-85
2020/12/05 03:53:24;;;;;;;218.23;205.10;;;2.10;99.90;;;;;;4170325;34;20909;-86
2020/12/05 03:56:26;;;;;;;217.70;204.20;;;1.80;99.90;;;;;;4167692;34;20304;-86
2020/12/05 03:58:54;;;;;;;219.37;206.40;;;2.00;99.90;;;;;;4085294;35;20335;-86
2020/12/05 04:01:25;;;;;;;198.93;187.33;;;1.80;99.90;;;;;;4154835;34;20302;-87
2020/12/05 04:04:19;;;;;;;203.40;191.47;;;1.70;99.90;;;;;;4214904;26;20282;-87
2020/12/05 04:06:53;;;;;;;223.07;207.77;;;1.60;99.90;;;;;;4170749;34;20691;-90
2020/12/05 04:09:21;;;;;;;211.47;198.87;;;1.50;99.90;;;;;;4170971;34;20289;-87
2020/12/05 04:12:26;;;;;;;206.57;193.80;;;1.40;99.90;;;;;;4181669;26;20613;-86
2020/12/05 04:14:55;;;;;;;212.50;199.30;;;1.40;99.90;;;;;;4170512;34;20360;-86
2020/12/05 04:17:49;;;;;;;211.47;198.10;;;1.60;99.90;;;;;;4169895;34;20301;-86
2020/12/05 04:20:37;;;;;;;;;;;;;;;;;;;;;
2020/12/05 04:23:08;;;;;;;210.40;197.47;;;1.60;99.90;;;;;;4166648;34;20313;-87
2020/12/05 04:25:55;;;;;;;225.93;211.20;;;1.70;99.90;;;;;;4167625;34;20716;-86
2020/12/05 04:28:24;;;;;;;231.67;217.63;;;1.80;99.90;;;;;;4196122;26;20297;-87
2020/12/05 04:30:51;;;;;;;217.23;202.90;;;1.90;99.90;;;;;;4169935;34;20290;-85
2020/12/05 04:33:25;;;;;;;229.53;215.40;;;1.90;99.90;;;;;;4167592;34;20632;-86
2020/12/05 04:36:04;;;;;;;221.53;207.33;;;2.20;99.90;;;;;;4216544;26;20344;-86
2020/12/05 04:38:34;;;;;;;215.97;202.37;;;2.10;99.90;;;;;;4170562;34;20313;-86
2020/12/05 04:41:15;;;;;;;212.33;198.90;;;2.10;99.90;;;;;;4167512;34;20322;-85
2020/12/05 04:44:16;;;;;;;;;;;;;;;;;;;;;
2020/12/05 04:47:08;;;;;;;224.27;211.97;;;2.20;99.90;;;;;;4169843;34;20291;-87
2020/12/05 04:53:15;;;;;;;224.83;212.33;;;2.10;99.90;;;;;;4155291;34;20302;-86
2020/12/05 04:56:02;;;;;;;226.50;213.87;;;2.10;99.90;;;;;;4181302;26;20306;-86
2020/12/05 04:58:49;;;;;;;223.23;210.30;;;2.10;99.90;;;;;;4207517;26;20266;-86
2020/12/05 05:01:23;;;;;;;235.97;219.47;;;1.90;99.90;;;;;;4170968;34;20321;-86
2020/12/05 05:04:00;;;;;;;215.03;202.77;;;1.80;99.90;;;;;;4171590;34;20294;-85
2020/12/05 05:06:30;;;;;;;208.67;196.10;;;1.80;99.90;;;;;;4171316;34;20345;-85
2020/12/05 05:09:01;;;;;;;205.93;193.17;;;1.50;99.90;;;;;;4217013;26;20395;-86
2020/12/05 05:11:35;;;;;;;199.27;187.17;;;1.50;99.90;;;;;;4171336;34;20294;-86
2020/12/05 05:14:13;;;;;;;211.53;197.37;;;1.80;99.90;;;;;;4201895;26;20290;-86
2020/12/05 05:16:39;;;;;;;203.13;190.73;;;1.50;99.90;;;;;;4167064;34;20291;-86
2020/12/05 05:19:22;;;;;;;202.77;190.37;;;1.60;99.90;;;;;;4168538;34;20309;-85
2020/12/05 05:21:52;;;;;;;213.53;200.10;;;1.60;99.90;;;;;;4168148;34;20302;-86
2020/12/05 05:24:21;;;;;;;214.40;201.10;;;1.40;99.90;;;;;;4171108;34;20877;-86
2020/12/05 05:26:59;;;;;;;218.30;204.47;;;1.60;99.90;;;;;;4170999;34;20406;-87
2020/12/05 05:29:35;;;;;;;216.07;202.50;;;1.40;99.90;;;;;;4167974;34;20777;-86
2020/12/05 05:32:43;;;;;;;205.77;192.73;;;1.40;99.90;;;;;;4167687;34;20293;-87
2020/12/05 05:35:16;;;;;;;207.87;193.93;;;1.50;99.90;;;;;;4167238;34;20311;-87
2020/12/05 05:37:44;;;;;;;220.70;207.13;;;1.20;99.90;;;;;;4171258;34;20293;-86
2020/12/05 05:40:15;;;;;;;203.27;189.87;;;1.10;99.90;;;;;;4170974;34;20355;-88
2020/12/05 05:42:42;;;;;;;208.90;195.43;;;1.00;99.90;;;;;;4204879;26;20306;-86
2020/12/05 05:45:40;;;;;;;;;;;;;;;;;;;;;
2020/12/05 05:48:07;;;;;;;200.73;187.60;;;0.60;99.90;;;;;;4171081;34;20330;-85
2020/12/05 05:50:51;;;;;;;191.07;179.10;;;0.40;99.90;;;;;;4168173;34;20329;-86
2020/12/05 05:56:50;;;;;;;;;;;;;;;;;;;;;
2020/12/05 05:59:28;;;;;;;185.87;172.90;;;0.40;99.90;;;;;;4153567;34;20332;-87
2020/12/05 06:02:09;;;;;;;190.77;178.07;;;0.20;99.90;;;;;;4171172;34;20314;-86
2020/12/05 06:04:59;;;;;;;;;;;;;;;;;;;;;
2020/12/05 06:07:37;;;;;;;;;;;;;;;;;;;;;
2020/12/05 06:10:26;;;;;;;188.20;174.98;;;0.30;99.90;;;;;;4178494;26;20309;-87
2020/12/05 06:13:03;;;;;;;180.40;167.53;;;0.20;99.90;;;;;;4170876;34;20207;-86
2020/12/05 06:15:36;;;;;;;191.47;177.47;;;0.20;99.90;;;;;;4215246;26;20333;-86
2020/12/05 06:18:17;;;;;;;;;;;;;;;;;;;;;
2020/12/05 06:20:50;;;;;;;186.70;172.40;;;0.70;99.90;;;;;;4188906;26;20312;-87
2020/12/05 06:23:49;;;;;;;201.77;186.37;;;0.80;99.90;;;;;;4168051;34;20777;-87
2020/12/05 06:27:04;;;;;;;;;;;;;;;;;;;;;
2020/12/05 06:29:43;;;;;;;190.20;177.30;;;0.80;99.90;;;;;;4165308;34;20312;-87
2020/12/05 06:32:40;;;;;;;177.60;164.87;;;0.90;99.90;;;;;;4167285;34;20285;-87
2020/12/05 06:35:48;;;;;;;173.30;160.63;;;0.70;99.90;;;;;;4167975;34;20346;-87
2020/12/05 06:38:21;;;;;;;188.97;176.53;;;0.80;99.90;;;;;;4168107;34;20314;-87
2020/12/05 06:40:55;;;;;;;181.68;168.57;;;1.10;99.90;;;;;;4167790;34;20286;-87
2020/12/05 06:43:29;;;;;;;183.23;171.17;;;1.10;99.90;;;;;;4168163;34;20187;-86
2020/12/05 06:49:06;;;;;;;182.73;170.20;;;1.10;99.90;;;;;;4190008;27;20815;-84
2020/12/05 06:51:45;;;;;;;178.30;167.05;;;1.30;99.90;;;;;;4170896;34;20298;-84
2020/12/05 06:57:40;;;;;;;179.23;168.17;;;1.70;99.90;;;;;;4175701;27;20286;-85
2020/12/05 07:10:54;;;;;;;190.40;178.40;;;1.60;99.90;;;;;;4105970;27;20312;-85
2020/12/05 07:54:48;;;;;;;204.23;193.47;;;1.70;99.90;;;;;;3991061;28;20330;-86
2020/12/05 08:00:41;;;;;;;213.20;202.00;;;1.80;99.90;;;;;;4084330;35;20316;-86
2020/12/05 08:04:01;;;;;;;201.17;189.57;;;1.60;99.90;;;;;;4085587;35;20323;-88
2020/12/05 08:06:45;;;;;;;214.03;201.30;;;1.30;99.90;;;;;;4098747;35;20314;-88
2020/12/05 08:09:31;;;;;;;205.80;194.03;;;1.40;99.90;;;;;;4164945;34;20294;-86
2020/12/05 08:11:58;;;;;;;224.10;211.90;;;1.70;99.90;;;;;;4171792;26;20393;-87
2020/12/05 08:14:38;;;;;;;208.73;196.73;;;1.70;99.90;;;;;;4169768;34;20773;-87
2020/12/05 08:17:15;;;;;;;206.07;194.57;;;1.70;99.90;;;;;;4165958;34;20318;-87
2020/12/05 08:19:58;;;;;;;216.50;204.83;;;1.90;99.90;;;;;;4167109;34;20298;-88
2020/12/05 08:22:35;;;;;;;214.83;202.67;;;1.90;99.90;;;;;;4170107;34;20330;-88
2020/12/05 08:25:12;;;;;;;217.23;205.50;;;2.10;99.90;;;;;;4192420;26;20383;-88
2020/12/05 08:27:56;;;;;;;221.43;208.60;;;2.20;99.90;;;;;;4212173;26;20302;-87
2020/12/05 08:30:25;;;;;;;226.30;214.30;;;2.30;99.90;;;;;;4171344;34;20309;-87
2020/12/05 08:33:23;;;;;;;217.63;205.77;;;2.20;99.90;;;;;;4202825;26;20305;-87
2020/12/05 08:36:06;;;;;;;;;;;;;;;;;;;;;
2020/12/05 08:38:43;;;;;;;237.63;224.50;;;2.60;99.90;;;;;;4209969;26;20356;-88
2020/12/05 08:47:31;;;;;;;233.47;221.90;;;2.90;99.90;;;;;;4167890;34;20310;-87
2020/12/05 08:50:05;;;;;;;242.53;230.60;;;3.00;99.90;;;;;;4217028;26;20314;-87
2020/12/05 08:52:40;;;;;;;233.70;222.37;;;2.80;99.90;;;;;;4171309;34;20323;-88
2020/12/05 08:55:10;;;;;;;235.07;223.27;;;3.10;99.90;;;;;;4171363;34;20318;-84
2020/12/05 09:01:25;;;;;;;229.00;218.20;;;3.30;99.90;;;;;;4176816;27;20737;-86
2020/12/05 09:04:33;;;;;;;230.70;219.80;;;3.30;99.90;;;;;;4185693;26;20285;-86
2020/12/05 09:10:54;;;;;;;206.80;198.20;;;3.70;99.90;;;;;;4168409;27;20297;-87
2020/12/05 09:13:34;;;;;;;172.33;164.83;;;3.90;99.90;;;;;;4086033;35;20309;-88
2020/12/05 09:20:06;;;;;;;147.73;141.13;;;4.30;99.90;;;;;;4105671;27;20609;-88
2020/12/05 09:22:35;;;;;;;154.97;147.73;;;4.30;99.90;;;;;;4165512;34;20305;-85
2020/12/05 09:25:04;;;;;;;145.43;138.67;;;4.50;99.90;;;;;;4168303;34;20297;-83
2020/12/05 09:27:45;;;;;;;122.67;116.83;;;4.50;99.90;;;;;;4168179;34;20859;-83
2020/12/05 09:30:25;;;;;;;110.57;105.33;;;4.40;99.90;;;;;;4171139;34;20299;-81
2020/12/05 09:32:58;;;;;;;115.60;109.93;;;4.40;99.90;;;;;;4211078;26;20757;-84
2020/12/05 09:35:26;;;;;;;110.73;105.33;;;4.40;99.90;;;;;;4172811;26;20309;-83
2020/12/05 09:38:02;;;;;;;109.67;104.77;;;4.50;99.90;;;;;;4169954;34;20318;-84
2020/12/05 09:40:30;;;;;;;82.17;77.83;;;4.70;99.90;;;;;;4198336;26;20285;-84
2020/12/05 09:42:58;;;;;;;57.17;54.03;;;4.80;99.90;;;;;;4167464;34;20325;-86
2020/12/05 09:45:33;;;;;;;26.57;24.67;;;4.90;99.90;;;;;;4167518;34;20298;-87
2020/12/05 09:48:00;;;;;;;29.30;27.43;;;4.90;99.90;;;;;;4169924;34;20576;-83
2020/12/05 09:50:30;;;;;;;15.83;14.53;;;5.00;99.90;;;;;;4168221;34;20766;-89
2020/12/05 09:52:58;;;;;;;11.63;9.60;;;5.10;99.90;;;;;;4181278;26;20404;-87
2020/12/05 09:55:26;;;;;;;10.17;7.73;;;5.20;99.90;;;;;;4170221;34;20407;-87
2020/12/05 09:57:52;;;;;;;9.60;7.70;;;5.30;99.90;;;;;;4167354;34;20328;-86
2020/12/05 10:00:18;;;;;;;9.50;6.23;;;5.30;99.90;;;;;;4170331;34;20322;-85
2020/12/05 10:02:46;;;;;;;7.87;5.20;;;5.20;99.90;;;;;;4166827;34;20302;-86
2020/12/05 10:05:12;;;;;;;10.83;5.40;;;5.30;99.90;;;;;;4167364;34;20461;-86
2020/12/05 10:07:40;;;;;;;8.43;4.50;;;5.20;99.90;;;;;;4170291;34;20354;-86
2020/12/05 10:10:08;;;;;;;7.97;5.07;;;5.20;99.90;;;;;;4168300;34;20342;-87
2020/12/05 10:12:44;;;;;;;8.77;5.20;;;5.30;99.90;;;;;;4167307;34;20568;-87
2020/12/05 10:15:11;;;;;;;6.97;4.20;;;5.40;99.90;;;;;;4187021;26;20367;-87
2020/12/05 10:17:40;;;;;;;7.33;3.10;;;5.40;99.90;;;;;;4170561;34;20290;-86
2020/12/05 10:20:12;;;;;;;7.60;3.93;;;5.40;93.20;;;;;;4171050;34;20318;-87
2020/12/05 10:22:42;;;;;;;4.43;2.40;;;5.30;93.00;;;;;;4171070;34;20603;-87
2020/12/05 10:25:11;;;;;;;5.10;2.60;;;5.30;92.60;;;;;;4167905;34;20295;-89
2020/12/05 10:28:14;;;;;;;4.63;1.93;;;5.20;84.40;;;;;;4170915;34;20784;-87
2020/12/05 10:30:40;;;;;;;5.20;2.03;;;5.30;82.30;;;;;;4164327;34;20316;-87
2020/12/05 10:33:24;;;;;;;;;;;;;;;;;;;;;
2020/12/05 10:36:01;;;;;;;5.53;2.80;;;5.30;74.10;;;;;;4173845;26;20301;-89
2020/12/05 10:38:27;;;;;;;4.40;1.70;;;5.40;73.20;;;;;;4170829;34;20303;-89
2020/12/05 10:40:57;;;;;;;4.80;1.70;;;5.30;69.30;;;;;;4167728;34;20222;-87
2020/12/05 10:43:29;;;;;;;4.50;1.80;;;5.40;70.60;;;;;;4171046;34;20191;-85
2020/12/05 10:46:22;;;;;;;4.57;1.70;;;5.40;62.00;;;;;;4170341;34;21143;-84
2020/12/05 10:48:48;;;;;;;4.77;1.80;;;5.50;54.00;;;;;;4098587;35;20300;-88
2020/12/05 10:51:43;;;;;;;5.03;2.37;;;5.50;57.80;;;;;;4143441;34;20828;-87
2020/12/05 10:54:59;;;;;;;4.87;2.27;;;5.60;52.70;;;;;;4170976;34;20310;-86
2020/12/05 10:57:41;;;;;;;5.07;2.37;;;5.80;56.10;;;;;;4095481;35;20457;-84
2020/12/05 11:00:21;;;;;;;6.83;2.23;;;5.80;59.50;;;;;;4133145;27;20361;-88
2020/12/05 11:02:52;;;;;;;4.93;2.10;;;5.90;51.30;;;;;;4115115;34;20411;-89
2020/12/05 11:05:44;;;;;;;4.80;2.13;;;6.10;47.60;;;;;;4186330;26;20338;-89
2020/12/05 11:08:54;;;;;;;4.60;1.60;;;6.20;44.40;;;;;;4181763;26;20286;-86
2020/12/05 11:15:00;;;;;;;4.50;1.60;;;6.20;41.50;;;;;;4108250;27;20295;-88
2020/12/05 11:17:58;;;;;;;;;;;;;;;;;;;;;
2020/12/05 11:30:42;;;;;;;4.10;1.47;;;7.30;38.20;;;;;;4083979;27;20284;-87
2020/12/05 11:39:28;;;;;;;4.10;1.17;;;7.80;21.20;;;;;;4173052;27;20649;-86
2020/12/05 11:41:57;;;;;;;4.57;1.43;;;8.10;21.20;;;;;;4195333;34;20627;-88
2020/12/05 11:44:31;;;;;;;4.80;1.90;;;8.30;19.50;;;;;;4198175;34;20695;-89
2020/12/05 11:47:23;;;;;;;4.50;1.30;;;8.60;18.70;;;;;;4197451;34;20372;-89
2020/12/05 11:50:02;;;;;;;5.60;1.40;;;8.70;17.20;;;;;;4198237;34;20807;-86
2020/12/05 11:52:36;;;;;;;6.83;1.50;;;8.80;15.40;;;;;;4216645;26;20305;-85
2020/12/05 11:55:24;;;;;;;5.87;1.23;;;9.00;14.40;;;;;;4198001;34;20713;-90
2020/12/05 11:57:52;;;;;;;6.80;1.70;;;9.10;13.10;;;;;;4111680;35;20333;-86
2020/12/05 12:00:27;;;;;;;6.87;1.60;;;9.40;14.20;;;;;;4111996;35;20292;-89
2020/12/05 12:03:49;;;;;;;;;;;;;;;;;;;;;
2020/12/05 12:06:19;;;;;;;6.03;1.60;;;9.40;9.40;;;;;;4112781;35;20386;-89
2020/12/05 12:12:32;;;;;;;6.63;1.30;;;9.80;10.30;;;;;;4144948;27;20305;-86
2020/12/05 12:15:01;;;;;;;5.83;1.90;;;9.70;8.50;;;;;;4112885;35;20852;-90
2020/12/05 12:18:25;;;;;;;;;;;;;;;;;;;;;
2020/12/05 12:20:57;;;;;;;5.67;1.30;;;9.60;8.70;;;;;;4166309;26;20304;-88
2020/12/05 12:23:27;;;;;;;8.03;1.60;;;9.20;6.00;;;;;;4196567;34;20330;-90
2020/12/05 12:25:54;;;;;;;6.83;1.70;;;9.40;7.50;;;;;;4199203;34;20282;-89
2020/12/05 12:28:26;;;;;;;6.30;2.03;;;9.20;6.70;;;;;;4196140;34;20430;-89
2020/12/05 12:30:53;;;;;;;4.93;1.27;;;9.00;8.60;;;;;;4199379;34;20385;-87
2020/12/05 12:33:21;;;;;;;6.80;1.50;;;9.10;7.00;;;;;;4196076;34;20289;-90
2020/12/05 12:35:48;;;;;;;6.77;1.67;;;9.10;5.20;;;;;;4199203;34;20344;-91
2020/12/05 12:38:23;;;;;;;5.37;1.30;;;9.20;7.10;;;;;;4198750;34;20430;-88
2020/12/05 12:41:02;;;;;;;6.90;1.70;;;9.30;9.90;;;;;;4196047;34;20301;-90
2020/12/05 12:43:28;;;;;;;6.53;1.50;;;9.50;7.10;;;;;;4198098;26;20289;-88
2020/12/05 12:45:55;;;;;;;5.33;1.40;;;9.30;9.00;;;;;;4195473;34;20297;-90
2020/12/05 12:48:40;;;;;;;5.93;1.77;;;9.50;6.70;;;;;;4199141;34;20803;-88
2020/12/05 12:51:11;;;;;;;8.70;1.30;;;9.40;5.40;;;;;;4199280;34;20285;-87
2020/12/05 12:53:40;;;;;;;5.17;1.40;;;9.10;6.20;;;;;;4199280;34;20332;-90
2020/12/05 12:56:06;;;;;;;7.17;1.23;;;9.20;7.30;;;;;;4196386;34;20289;-88
2020/12/05 13:01:21;;;;;;;5.10;1.70;;;9.00;7.30;;;;;;4233205;26;20293;-89
2020/12/05 13:03:50;;;;;;;4.70;1.40;;;8.70;6.60;;;;;;4238122;26;20326;-90
2020/12/05 13:06:17;;;;;;;4.93;1.20;;;8.90;8.90;;;;;;4196426;34;20335;-87
2020/12/05 13:08:48;;;;;;;6.50;1.37;;;8.70;9.50;;;;;;4196621;34;20365;-87
2020/12/05 13:11:17;;;;;;;5.70;1.70;;;8.90;8.60;;;;;;4198585;34;20361;-87
2020/12/05 13:13:50;;;;;;;6.60;1.60;;;9.00;8.00;;;;;;4196755;34;20317;-87
2020/12/05 13:16:20;;;;;;;4.37;1.03;;;9.00;7.60;;;;;;4198593;34;20341;-89
2020/12/05 13:18:48;;;;;;;5.10;1.50;;;8.90;9.30;;;;;;4199216;34;20304;-88
2020/12/05 13:21:20;;;;;;;6.87;1.50;;;9.00;10.10;;;;;;4202303;34;20273;-89
2020/12/05 13:23:49;;;;;;;4.70;1.50;;;9.00;7.50;;;;;;4196387;34;20297;-88
2020/12/05 13:26:18;;;;;;;8.60;1.40;;;9.20;9.80;;;;;;4199521;34;20390;-88
2020/12/05 13:29:10;;;;;;;7.00;1.50;;;9.00;9.00;;;;;;4229271;26;20297;-88
2020/12/05 13:31:48;;;;;;;5.50;1.47;;;9.10;9.20;;;;;;4139134;34;20377;-86
2020/12/05 13:34:19;;;;;;;6.43;1.80;;;8.60;11.60;;;;;;4224609;26;20288;-88
2020/12/05 13:36:51;;;;;;;5.17;1.70;;;8.40;12.20;;;;;;4199166;34;20309;-91
2020/12/05 13:39:18;;;;;;;4.67;1.37;;;8.00;14.70;;;;;;4197165;34;20308;-88
2020/12/05 13:41:49;;;;;;;5.03;1.77;;;7.40;16.30;;;;;;4196778;34;20293;-89
2020/12/05 13:44:16;;;;;;;7.83;1.97;;;7.30;17.60;;;;;;4199657;34;20374;-90
2020/12/05 13:46:42;;;;;;;6.80;2.20;;;7.20;18.40;;;;;;4195922;34;20345;-92
2020/12/05 13:49:09;;;;;;;6.70;1.80;;;6.90;18.60;;;;;;4199562;34;20292;-88
2020/12/05 13:51:39;;;;;;;5.70;1.80;;;6.90;20.30;;;;;;4196169;34;20285;-90
2020/12/05 13:54:05;;;;;;;5.40;1.50;;;6.60;22.50;;;;;;4198797;26;20305;-90
2020/12/05 13:56:32;;;;;;;5.00;2.00;;;6.60;20.70;;;;;;4195954;34;20309;-89
2020/12/05 13:59:01;;;;;;;4.93;1.80;;;6.60;25.20;;;;;;4196344;34;20306;-86
2020/12/05 14:01:27;;;;;;;5.30;2.00;;;6.60;24.30;;;;;;4198761;34;20309;-86
2020/12/05 14:03:54;;;;;;;5.27;1.97;;;6.50;25.40;;;;;;4196172;34;20313;-91
2020/12/05 14:06:20;;;;;;;5.17;1.60;;;6.50;24.30;;;;;;4199147;34;20628;-91
2020/12/05 14:08:46;;;;;;;5.00;1.70;;;6.50;25.40;;;;;;4196060;34;20293;-90
2020/12/05 14:11:20;;;;;;;4.63;1.37;;;6.30;24.20;;;;;;4199664;34;20285;-90
2020/12/05 14:13:47;;;;;;;4.67;1.47;;;6.40;23.60;;;;;;4199103;34;20678;-85
2020/12/05 14:16:41;;;;;;;5.10;1.63;;;6.40;20.50;;;;;;4195097;34;20303;-92
2020/12/05 14:19:15;;;;;;;5.97;2.10;;;6.30;22.70;;;;;;4203742;26;20351;-83
2020/12/05 14:21:41;;;;;;;12.00;4.10;;;6.20;24.80;;;;;;4212960;26;20285;-89
2020/12/05 14:24:08;;;;;;;5.20;1.93;;;6.10;26.80;;;;;;4196279;34;20281;-90
2020/12/05 14:26:51;;;;;;;8.30;1.93;;;5.90;28.50;;;;;;4198889;34;20323;-86
2020/12/05 14:30:07;;;;;;;;;;;;;;;;;;;;;
2020/12/05 14:32:35;;;;;;;6.47;1.90;;;5.60;33.50;;;;;;4180968;34;20286;-86
2020/12/05 14:35:03;;;;;;;6.50;1.80;;;5.40;31.30;;;;;;4198577;34;20307;-85
2020/12/05 14:37:29;;;;;;;5.70;2.33;;;5.30;34.70;;;;;;4198770;34;20277;-86
2020/12/05 14:40:01;;;;;;;6.20;2.53;;;5.10;39.00;;;;;;4196896;34;20305;-84
2020/12/05 14:42:28;;;;;;;9.80;2.17;;;4.90;44.20;;;;;;4196437;34;20737;-85
2020/12/05 14:44:56;;;;;;;7.20;2.00;;;4.90;49.10;;;;;;4199120;34;20374;-89
2020/12/05 14:47:22;;;;;;;5.63;1.90;;;4.70;49.90;;;;;;4199012;34;20282;-87
2020/12/05 14:49:54;;;;;;;6.10;2.20;;;4.90;52.40;;;;;;4199507;34;20304;-87
2020/12/05 14:52:24;;;;;;;5.23;2.30;;;4.50;50.40;;;;;;4196487;34;20313;-88
2020/12/05 14:54:50;;;;;;;5.90;2.00;;;4.60;49.00;;;;;;4196367;34;20321;-88
2020/12/05 14:57:21;;;;;;;6.17;2.27;;;4.60;49.80;;;;;;4199197;34;20282;-87
2020/12/05 15:00:07;;;;;;;4.77;1.90;;;4.70;50.70;;;;;;4198752;34;20672;-87
2020/12/05 15:02:36;;;;;;;23.37;10.47;;;4.50;54.50;;;;;;4198008;34;20301;-86
2020/12/05 15:05:15;;;;;;;59.80;29.80;;;4.60;60.50;;;;;;4196405;34;20313;-89
2020/12/05 15:08:01;;;;;;;53.70;28.67;;;4.40;62.40;;;;;;4213557;26;20277;-87
2020/12/05 15:10:31;;;;;;;36.30;18.50;;;4.30;66.10;;;;;;4198675;34;20403;-89
2020/12/05 15:12:57;;;;;;;13.13;5.67;;;4.00;72.40;;;;;;4199139;34;20289;-88
2020/12/05 15:15:29;;;;;;;12.57;4.90;;;3.90;75.70;;;;;;4199050;34;20643;-88
2020/12/05 15:17:56;;;;;;;25.60;14.77;;;3.70;81.40;;;;;;4195536;34;20369;-86
2020/12/05 15:20:23;;;;;;;19.60;11.73;;;3.60;86.30;;;;;;4197088;34;20281;-88
2020/12/05 15:22:50;;;;;;;8.70;4.07;;;3.40;92.30;;;;;;4197384;34;20285;-88
2020/12/05 15:25:20;;;;;;;8.20;3.97;;;3.40;96.50;;;;;;4200425;34;20819;-88
2020/12/05 15:27:48;;;;;;;13.30;6.70;;;3.20;97.90;;;;;;4197331;34;20346;-88
2020/12/05 15:30:17;;;;;;;37.90;20.73;;;3.00;99.90;;;;;;4200819;34;20277;-88
2020/12/05 15:32:46;;;;;;;24.80;15.77;;;3.10;99.90;;;;;;4197310;34;20397;-86
2020/12/05 15:35:14;;;;;;;10.83;5.83;;;2.80;99.90;;;;;;4197292;34;20281;-88
2020/12/05 15:37:46;;;;;;;7.30;3.17;;;2.80;99.90;;;;;;4200464;34;20278;-88
2020/12/05 15:40:28;;;;;;;7.23;3.73;;;2.80;99.90;;;;;;4198956;34;20300;-87
2020/12/05 15:43:06;;;;;;;10.20;3.27;;;2.60;99.90;;;;;;4219758;26;20293;-87
2020/12/05 15:45:36;;;;;;;7.73;3.53;;;2.50;99.90;;;;;;4245476;26;20313;-86
2020/12/05 15:48:09;;;;;;;7.63;3.97;;;2.50;99.90;;;;;;4197744;34;20818;-86
2020/12/05 15:50:39;;;;;;;5.67;3.63;;;2.50;99.90;;;;;;4241665;26;20382;-87
2020/12/05 15:53:11;;;;;;;11.73;3.90;;;2.20;99.90;;;;;;4198361;34;20306;-87
2020/12/05 15:58:24;;;;;;;10.37;4.30;;;2.40;99.90;;;;;;4209027;26;20285;-87
2020/12/05 16:00:58;;;;;;;14.63;4.73;;;2.30;99.90;;;;;;4198735;34;20305;-88
2020/12/05 16:03:29;;;;;;;11.33;5.03;;;2.20;99.90;;;;;;4207231;26;20688;-87
2020/12/05 16:06:02;;;;;;;10.07;4.90;;;2.00;99.90;;;;;;4200611;34;20405;-87
2020/12/05 16:11:47;;;;;;;7.10;4.90;;;2.00;99.90;;;;;;4189049;26;20301;-86
2020/12/05 16:14:53;;;;;;;;;;;;;;;;;;;;;
2020/12/05 16:18:01;;;;;;;16.00;6.00;;;1.70;99.90;;;;;;4195464;34;20194;-88
2020/12/05 16:23:13;;;;;;;8.40;5.30;;;1.80;99.90;;;;;;4146590;27;20302;-88
2020/12/05 16:26:06;;;;;;;8.63;6.13;;;2.00;99.90;;;;;;4131675;34;20298;-87
2020/12/05 16:28:56;;;;;;;12.30;7.07;;;2.10;99.90;;;;;;4188298;34;20324;-87
2020/12/05 16:31:42;;;;;;;11.13;5.17;;;2.30;99.90;;;;;;4195218;34;20285;-88